N6767 NTGA-VNLK
Flight info
| Callsign | N6767 |
|---|---|
| Flight time | N/A |
| Altitude | 9000 |
| Route | / |
| Aircraft | C208/L-SDFG/C |
Departure
| Time | N/A |
|---|---|
| Airport | Anaa Airport (NTGA) |
Arrival
| Time | 2025-12-21 21:48 |
|---|---|
| Airport | Tenzing-Hillary Airport (VNLK) |
| Time | Latitude | Longitude | Altitude | Speed | Heading |
|---|---|---|---|---|---|
| 2025-12-21 21:48 | 27.68748 | 86.73200 | 9402 ft | 0 kts | 39° |
| 2025-12-21 21:55 | 27.68777 | 86.73135 | 9403 ft | 0 kts | 242° |
| 2025-12-21 21:56 | 27.68751 | 86.73100 | 9386 ft | 35 kts | 226° |
| 2025-12-21 21:57 | 27.68096 | 86.71504 | 8878 ft | 158 kts | 245° |
| 2025-12-21 21:57 | 27.67016 | 86.71068 | 9237 ft | 100 kts | 48° |
| 2025-12-21 21:58 | 27.68022 | 86.71853 | 8915 ft | 77 kts | 39° |
| 2025-12-21 21:58 | 27.68544 | 86.72690 | 9135 ft | 0 kts | 45° |
| 2025-12-21 21:59 | 27.68748 | 86.73200 | 9402 ft | 0 kts | 39° |
| 2025-12-21 22:01 | 27.68775 | 86.73175 | 9402 ft | 6 kts | 266° |
| 2025-12-21 22:02 | 27.68770 | 86.73123 | 9402 ft | 0 kts | 243° |
| 2025-12-21 22:02 | 27.68688 | 86.72962 | 9309 ft | 73 kts | 250° |
| 2025-12-21 22:02 | 27.68355 | 86.72200 | 9210 ft | 117 kts | 264° |
| 2025-12-21 22:03 | 27.68045 | 86.70978 | 9716 ft | 148 kts | 110° |
| 2025-12-21 22:04 | 27.68632 | 86.72865 | 9257 ft | 89 kts | 58° |
| 2025-12-21 22:04 | 27.68789 | 86.73191 | 9397 ft | 5 kts | 69° |
| 2025-12-21 22:05 | 27.68783 | 86.73148 | 9395 ft | 12 kts | 237° |
| 2025-12-21 22:05 | 27.67952 | 86.72030 | 8838 ft | 161 kts | 217° |
| 2025-12-21 22:05 | 27.67045 | 86.71065 | 8530 ft | 181 kts | 234° |
| 2025-12-21 22:06 | 27.67415 | 86.69072 | 9442 ft | 123 kts | 321° |
| 2025-12-21 22:06 | 27.66447 | 86.70133 | 8764 ft | 177 kts | 68° |
| 2025-12-21 22:07 | 27.68335 | 86.72304 | 9138 ft | 110 kts | 45° |
| 2025-12-21 22:08 | 27.68715 | 86.73030 | 9344 ft | 25 kts | 58° |
| 2025-12-21 22:08 | 27.68803 | 86.73177 | 9400 ft | 0 kts | 162° |
| 2025-12-21 22:09 | 27.68734 | 86.73052 | 9360 ft | 54 kts | 241° |
| 2025-12-21 22:09 | 27.68566 | 86.72717 | 9205 ft | 102 kts | 242° |
| 2025-12-21 22:10 | 27.68379 | 86.71889 | 9391 ft | 98 kts | 241° |
| 2025-12-21 22:11 | 27.68557 | 86.72727 | 9205 ft | 84 kts | 242° |
| 2025-12-21 22:12 | 27.67839 | 86.71525 | 9072 ft | 112 kts | 238° |
| 2025-12-21 22:12 | 27.66688 | 86.70605 | 8953 ft | 122 kts | 189° |
| 2025-12-21 22:13 | 27.65010 | 86.70275 | 8704 ft | 127 kts | 195° |
| 2025-12-21 22:13 | 27.63568 | 86.70268 | 8590 ft | 122 kts | 190° |
| 2025-12-21 22:14 | 27.62143 | 86.69725 | 8742 ft | 89 kts | 183° |
| 2025-12-21 22:14 | 27.61393 | 86.69531 | 8312 ft | 124 kts | 210° |
| 2025-12-21 22:14 | 27.60381 | 86.68417 | 8416 ft | 101 kts | 230° |
| 2025-12-21 22:15 | 27.58408 | 86.67737 | 8507 ft | 105 kts | 181° |
| 2025-12-21 22:16 | 27.56918 | 86.68040 | 8360 ft | 111 kts | 162° |
| 2025-12-21 22:16 | 27.55571 | 86.68485 | 8407 ft | 100 kts | 163° |
| 2025-12-21 22:17 | 27.54063 | 86.69086 | 7973 ft | 135 kts | 173° |
| 2025-12-21 22:17 | 27.52399 | 86.69189 | 7941 ft | 128 kts | 176° |
| 2025-12-21 22:17 | 27.51497 | 86.69316 | 7938 ft | 133 kts | 168° |
| 2025-12-21 22:18 | 27.49188 | 86.69571 | 7965 ft | 102 kts | 187° |
| 2025-12-21 22:18 | 27.48441 | 86.69531 | 7856 ft | 107 kts | 179° |
| 2025-12-21 22:19 | 27.46147 | 86.69950 | 7591 ft | 117 kts | 163° |
| 2025-12-21 22:20 | 27.44711 | 86.69719 | 7593 ft | 108 kts | 232° |
| 2025-12-21 22:20 | 27.44069 | 86.68176 | 7428 ft | 110 kts | 230° |
| 2025-12-21 22:21 | 27.42801 | 86.66971 | 7356 ft | 111 kts | 232° |
| 2025-12-21 22:21 | 27.42282 | 86.65561 | 7476 ft | 90 kts | 264° |
| 2025-12-21 22:21 | 27.42180 | 86.64888 | 7420 ft | 92 kts | 260° |
| 2025-12-21 22:22 | 27.41395 | 86.64118 | 7147 ft | 101 kts | 145° |
| 2025-12-21 22:22 | 27.41087 | 86.64562 | 6831 ft | 56 kts | 104° |
| 2025-12-21 22:23 | 27.41047 | 86.64637 | 6833 ft | 0 kts | 215° |
| 2025-12-21 22:24 | 27.41067 | 86.64676 | 6836 ft | 4 kts | 278° |
| 2025-12-21 22:25 | 27.41065 | 86.64687 | 6836 ft | 2 kts | 6° |
| 2025-12-21 22:27 | 27.41038 | 86.64671 | 6835 ft | 2 kts | 110° |
| 2025-12-21 22:28 | 27.41036 | 86.64679 | 6835 ft | 0 kts | 111° |
| 2025-12-21 22:28 | 27.41030 | 86.64695 | 6836 ft | 1 kts | 115° |
| 2025-12-21 22:29 | 27.41024 | 86.64711 | 6837 ft | 4 kts | 124° |
| 2025-12-21 22:29 | 27.41068 | 86.64628 | 6832 ft | 8 kts | 112° |
| 2025-12-21 22:29 | 27.41089 | 86.64574 | 6831 ft | 7 kts | 115° |
| 2025-12-21 22:30 | 27.41109 | 86.64468 | 6828 ft | 8 kts | 63° |
| 2025-12-21 22:30 | 27.41064 | 86.64407 | 6819 ft | 4 kts | 288° |
| 2025-12-21 22:31 | 27.40545 | 86.63868 | 5874 ft | 90 kts | 231° |
| 2025-12-21 22:32 | 27.39358 | 86.62871 | 5598 ft | 102 kts | 206° |
| 2025-12-21 22:32 | 27.37935 | 86.62392 | 5425 ft | 103 kts | 189° |
| 2025-12-21 22:33 | 27.36477 | 86.62388 | 5271 ft | 105 kts | 165° |
| 2025-12-21 22:33 | 27.35351 | 86.63100 | 5286 ft | 95 kts | 136° |
| 2025-12-21 22:33 | 27.34982 | 86.63579 | 5451 ft | 66 kts | 111° |
| 2025-12-21 22:34 | 27.35631 | 86.64410 | 5273 ft | 94 kts | 16° |
| 2025-12-21 22:34 | 27.37086 | 86.64554 | 5901 ft | 86 kts | 360° |
| 2025-12-21 22:35 | 27.38714 | 86.63753 | 6744 ft | 96 kts | 316° |
| 2025-12-21 22:36 | 27.39611 | 86.62409 | 7065 ft | 122 kts | 302° |
| 2025-12-21 22:36 | 27.40045 | 86.61768 | 7779 ft | 77 kts | 313° |
| 2025-12-21 22:37 | 27.41658 | 86.62125 | 8362 ft | 124 kts | 49° |
| 2025-12-21 22:37 | 27.42112 | 86.62829 | 8860 ft | 98 kts | 58° |
| 2025-12-21 22:37 | 27.41945 | 86.63830 | 9449 ft | 81 kts | 182° |
| 2025-12-21 22:38 | 27.40513 | 86.64031 | 9850 ft | 108 kts | 166° |
| 2025-12-21 22:38 | 27.39185 | 86.64729 | 10420 ft | 95 kts | 143° |
| 2025-12-21 22:39 | 27.37730 | 86.66706 | 10930 ft | 123 kts | 126° |
| 2025-12-21 22:40 | 27.35621 | 86.67967 | 7604 ft | 182 kts | 159° |
| 2025-12-21 22:40 | 27.33356 | 86.68955 | 7513 ft | 156 kts | 159° |
| 2025-12-21 22:41 | 27.31883 | 86.69839 | 8332 ft | 140 kts | 127° |
| 2025-12-21 22:41 | 27.31543 | 86.70743 | 6652 ft | 173 kts | 71° |
| 2025-12-21 22:41 | 27.30313 | 86.71067 | 7628 ft | 118 kts | 212° |
| 2025-12-21 22:42 | 27.29028 | 86.69780 | 8054 ft | 127 kts | 221° |
| 2025-12-21 22:42 | 27.27311 | 86.68828 | 6039 ft | 147 kts | 163° |
| 2025-12-21 22:43 | 27.25775 | 86.68241 | 4433 ft | 72 kts | 236° |
| 2025-12-21 22:44 | 27.25296 | 86.67417 | 4112 ft | 50 kts | 264° |
| 2025-12-21 22:44 | 27.25291 | 86.67267 | 4108 ft | 0 kts | 1° |